METAR Data
IDs: Format: Raw Decoded Include TAF

Data at: 1818 UTC 21 Sep 2018

KDHT 211753Z AUTO 02026G30KT 6SM HZ OVC007 15/12 A3030 RMK AO2 PK WND 02030/1752 SLP224 60000 T01500122 10178 20150 51017
KDHT 211653Z AUTO 36020G26KT 8SM OVC007 16/13 A3029 RMK AO2 PK WND 36030/1632 SLP217 T01560128
KDHT 211618Z AUTO 36019KT 7SM OVC005 15/13 A3027 RMK AO2 PK WND 36030/1555 T01500133
KDHT 211602Z AUTO 36023G30KT 3SM BR OVC004 15/14 A3027 RMK AO2 PK WND 36030/1555 T01500139
KDHT 211553Z AUTO 36021G26KT 1 3/4SM BR OVC004 16/14 A3026 RMK AO2 PK WND 01028/1528 RAB1455E36 SLP210 P0000 T01560139
KDHT 211502Z AUTO 02022G27KT 1SM -RA BR OVC004 16/14 A3025 RMK AO2 PK WND 02027/1501 RAB1455 P0000 T01610144
KDHT 211453Z AUTO 02020G29KT 1 1/2SM BR OVC005 16/14 A3024 RMK AO2 PK WND 03029/1444 RAE1358 SLP200 P0000 60000 T01610144 51011
KDHT 211450Z AUTO 02020G29KT 1 1/2SM BR OVC005 16/14 A3024 RMK AO2 PK WND 03029/1444 RAE1358 P0000
KDHT 211440Z AUTO 03018G25KT 2SM BR OVC005 17/15 A3024 RMK AO2 PK WND 04028/1358 RAE1358 P0000 T01670150
KDHT 211353Z AUTO 03024G32KT 6SM -RA BR OVC006 17/16 A3021 RMK AO2 PK WND 04036/1341 RAB1254E05B49 CIG 004V010 SLP187 P0000 T01720156
KDHT 211349Z AUTO 03025G36KT 5SM -RA BR OVC006 17/16 A3020 RMK AO2 PK WND 04036/1341 RAB1254E05B49 CIG 004V009 P0000
KDHT 211339Z AUTO 03023G31KT 4SM BR OVC004 17/16 A3020 RMK AO2 PK WND 04031/1332 RAB1254E05 CIG 003V007 P0000 T01720156
KDHT 211318Z AUTO 02020G29KT 2SM BR OVC004 18/16 A3019 RMK AO2 PK WND 02029/1318 RAB1254E05 P0000 T01780161
KDHT 211253Z AUTO 02015KT 5SM BR OVC005 18/16 A3017 RMK AO2 SLP172 T01780161
KDHT 211241Z AUTO 01017G22KT 5SM BR OVC004 17/16 A3016 RMK AO2 T01720161
KDHT 211216Z AUTO 01015KT 4SM BR OVC003 17/16 A3014 RMK AO2 T01720156
KDHT 211201Z AUTO 02017KT 4SM BR OVC004 17/16 A3014 RMK AO2 T01670156
KDHT 211153Z AUTO 01013KT 6SM BR OVC003 17/16 A3014 RMK AO2 SLP159 70001 T01720156 10178 20156 53026
KDHT 211135Z AUTO 01016KT 3SM BR OVC002 17/16 A3013 RMK AO2 T01720161
KDHT 211123Z AUTO 02015KT 1SM BR OVC002 17/16 A3011 RMK AO2 T01670156
KDHT 211118Z AUTO 02015KT 2 1/2SM BR OVC004 17/16 A3011 RMK AO2 T01670156
KDHT 211108Z AUTO 02012KT 7SM BKN005 17/15 A3011 RMK AO2 T01670150
KDHT 211053Z AUTO 03010KT 7SM FEW005 16/14 A3010 RMK AO2 SLP149 T01610144
KDHT 210953Z AUTO 36009KT 8SM CLR 16/14 A3008 RMK AO2 SLP136 T01610139
KDHT 210853Z AUTO 36004KT 8SM CLR 16/14 A3005 RMK AO2 SLP120 T01610144 53014
KDHT 210753Z AUTO 30004KT 6SM BR CLR 16/14 A3003 RMK AO2 SLP111 T01610144
KDHT 210653Z AUTO 26007KT 9SM CLR 17/15 A3001 RMK AO2 SLP105 T01670150
KDHT 210553Z AUTO 19004KT 10SM CLR 17/15 A3000 RMK AO2 SLP102 T01720150 10211 20172 403110172 50008
KDHT 210453Z AUTO 00000KT 10SM CLR 19/15 A3000 RMK AO2 SLP103 T01890150
KDHT 210353Z AUTO 11007KT 10SM CLR 19/16 A2998 RMK AO2 SLP096 T01890156
KDHT 210253Z AUTO 24003KT 10SM CLR 19/16 A2997 RMK AO2 SLP098 T01940156 53018
KDHT 210153Z AUTO 23005KT 8SM CLR 19/16 A2994 RMK AO2 SLP091 T01940161
KDHT 210053Z AUTO 24004KT 10SM CLR 20/17 A2994 RMK AO2 SLP094 T02000167
KDHT 202353Z AUTO 26012KT 8SM FEW120 21/17 A2992 RMK AO2 RAE20 SLP082 P0001 60001 T02110167 10311 20211 51011
KDHT 202253Z AUTO 28011KT 10SM -RA OVC110 22/17 A2990 RMK AO2 RAB2158E26B48 SLP076 P0000 T02170172
KDHT 202153Z AUTO 28015G21KT 10SM SCT070 SCT085 BKN110 24/14 A2990 RMK AO2 WSHFT 2116 SLP072 T02440144
KDHT 202136Z AUTO 29012KT 10SM FEW075 SCT120 24/16 A2989 RMK AO2 WSHFT 2116 T02440156
KDHT 202053Z AUTO 21015G24KT 10SM FEW060 FEW120 29/12 A2988 RMK AO2 PK WND 22026/2003 LTG DSNT SW SLP055 T02890122 56017
KDHT 201953Z AUTO 22017G25KT 10SM FEW065 BKN120 31/13 A2989 RMK AO2 PK WND 20028/1913 LTG DSNT N AND NW SLP055 T03060133
KDHT 201853Z AUTO 22017G22KT 10SM FEW050 FEW060 SCT110 30/14 A2991 RMK AO2 PK WND 21029/1754 SLP063 T03000139
KDHT 201753Z AUTO 21020G27KT 10SM CLR 29/14 A2993 RMK AO2 PK WND 20027/1745 SLP070 T02940144 10294 20172 58009
KDHT 201653Z AUTO 19021KT 10SM CLR 28/14 A2995 RMK AO2 PK WND 20026/1604 SLP077 T02780139
KDHT 201553Z AUTO 18017G22KT 10SM CLR 26/14 A2996 RMK AO2 SLP081 T02560139
KDHT 201453Z AUTO 20020KT 10SM CLR 23/14 A2996 RMK AO2 SLP085 T02280139 53010
KDHT 201353Z AUTO 18013KT 10SM CLR 19/14 A2996 RMK AO2 SLP086 T01940139
KDHT 201253Z AUTO 18011KT 10SM CLR 17/13 A2994 RMK AO2 SLP079 T01720133
KDHT 201153Z AUTO 17014KT 10SM CLR 18/13 A2993 RMK AO2 SLP073 T01780133 10233 20172 53006
KDHT 201053Z AUTO 18009KT 10SM CLR 18/13 A2992 RMK AO2 SLP068 T01780128
KDHT 200953Z AUTO 18009KT 10SM CLR 18/14 A2991 RMK AO2 SLP063 T01830139
KDHT 200853Z AUTO 19013KT 10SM CLR 21/14 A2991 RMK AO2 SLP060 T02060144 58006
KDHT 200753Z AUTO 19014KT 10SM CLR 22/15 A2992 RMK AO2 SLP063 T02170150
KDHT 200653Z AUTO 18015KT 10SM CLR 23/16 A2992 RMK AO2 SLP065 T02280156